createdAt,value
2019-01-27T00:02:39.483Z,5.30
2019-01-27T00:05:19.897Z,5.30
2019-01-27T00:08:01.017Z,5.30
2019-01-27T00:10:41.749Z,5.30
2019-01-27T00:13:22.296Z,5.30
2019-01-27T00:16:03.328Z,5.30
2019-01-27T00:18:43.976Z,5.30
2019-01-27T00:21:24.944Z,5.30
2019-01-27T00:24:05.576Z,5.30
2019-01-27T00:26:46.231Z,5.30
2019-01-27T00:29:27.121Z,5.30
2019-01-27T00:32:07.511Z,5.30
2019-01-27T00:34:48.040Z,5.30
2019-01-27T00:37:28.456Z,5.30
2019-01-27T00:40:09.299Z,5.30
2019-01-27T00:42:50.404Z,5.30
2019-01-27T00:45:31.141Z,5.20
2019-01-27T00:48:11.924Z,5.30
2019-01-27T00:50:52.255Z,5.30
2019-01-27T00:53:32.707Z,5.30
2019-01-27T00:56:13.652Z,5.30
2019-01-27T00:58:54.183Z,5.30
2019-01-27T01:01:34.865Z,5.30
2019-01-27T01:04:15.388Z,5.30
2019-01-27T01:06:56.128Z,5.30
2019-01-27T01:09:36.520Z,5.30
2019-01-27T01:12:17.288Z,5.30
2019-01-27T01:14:57.852Z,5.30
2019-01-27T01:17:38.336Z,5.30
2019-01-27T01:20:18.808Z,5.30
2019-01-27T01:22:59.520Z,5.20
2019-01-27T01:25:40.220Z,5.30
2019-01-27T01:28:20.635Z,5.20
2019-01-27T01:31:01.572Z,5.20
2019-01-27T01:33:42.033Z,5.20
2019-01-27T01:36:22.700Z,5.20
2019-01-27T01:39:04.352Z,5.20
2019-01-27T01:41:45.027Z,5.20
2019-01-27T01:44:25.779Z,5.30
2019-01-27T01:47:06.143Z,5.20
2019-01-27T01:49:46.715Z,5.30
2019-01-27T01:52:27.100Z,5.30
2019-01-27T01:55:07.559Z,5.40
2019-01-27T01:57:48.119Z,5.40
2019-01-27T02:00:28.929Z,5.50
2019-01-27T02:03:10.093Z,5.50
2019-01-27T02:05:51.163Z,5.60
2019-01-27T02:08:31.960Z,5.60
2019-01-27T02:11:12.696Z,5.60
2019-01-27T02:13:53.631Z,5.60
2019-01-27T02:16:34.239Z,5.70
2019-01-27T02:19:14.713Z,5.70
2019-01-27T02:21:55.092Z,5.70
2019-01-27T02:24:36.051Z,5.70
2019-01-27T02:27:16.573Z,5.70
2019-01-27T02:29:57.119Z,5.70
2019-01-27T02:32:37.534Z,5.70
2019-01-27T02:35:18.379Z,5.70
2019-01-27T02:37:59.572Z,5.70
2019-01-27T02:40:40.053Z,5.70
2019-01-27T02:43:20.662Z,5.70
2019-01-27T02:46:01.243Z,5.70
2019-01-27T02:48:42.307Z,5.70
2019-01-27T02:51:23.046Z,5.70
2019-01-27T02:54:03.772Z,5.70
2019-01-27T02:56:44.156Z,5.70
2019-01-27T02:59:24.804Z,5.70
2019-01-27T03:02:05.512Z,5.70
2019-01-27T03:04:46.772Z,5.70
2019-01-27T03:07:28.863Z,5.80
2019-01-27T03:10:09.925Z,5.70
2019-01-27T03:12:50.636Z,5.80
2019-01-27T03:15:31.246Z,5.80
2019-01-27T03:18:11.729Z,5.80
2019-01-27T03:20:54.282Z,5.80
2019-01-27T03:23:34.760Z,5.80
2019-01-27T03:26:15.084Z,5.90
2019-01-27T03:28:55.853Z,5.90
2019-01-27T03:31:36.355Z,5.90
2019-01-27T03:34:16.872Z,6.00
2019-01-27T03:36:57.656Z,6.00
2019-01-27T03:39:38.375Z,6.00
2019-01-27T03:42:19.308Z,6.00
2019-01-27T03:44:59.600Z,5.90
2019-01-27T03:47:40.400Z,5.80
2019-01-27T03:50:20.833Z,5.80
2019-01-27T03:53:01.419Z,5.80
2019-01-27T03:55:41.936Z,5.80
2019-01-27T03:58:22.807Z,5.70
2019-01-27T04:01:03.430Z,5.80
2019-01-27T04:03:43.797Z,5.70
2019-01-27T04:06:24.331Z,5.70
2019-01-27T04:09:05.221Z,5.70
2019-01-27T04:11:45.324Z,5.70
2019-01-27T04:14:25.793Z,5.70
2019-01-27T04:17:06.287Z,5.70
2019-01-27T04:19:46.949Z,5.70
2019-01-27T04:22:27.720Z,5.70
2019-01-27T04:25:08.328Z,5.70
2019-01-27T04:27:49.208Z,5.70
2019-01-27T04:30:31.235Z,5.70
2019-01-27T04:33:11.537Z,5.60
2019-01-27T04:35:52.230Z,5.60
2019-01-27T04:38:32.932Z,5.60
2019-01-27T04:41:13.432Z,5.60
2019-01-27T04:43:54.057Z,5.60
2019-01-27T04:46:34.701Z,5.60
2019-01-27T04:49:15.818Z,5.60
2019-01-27T04:51:56.660Z,5.60
2019-01-27T04:54:37.608Z,5.60
2019-01-27T04:57:18.675Z,5.60
2019-01-27T04:59:59.457Z,5.60
2019-01-27T05:02:41.840Z,5.60
2019-01-27T05:08:06.720Z,5.60
2019-01-27T05:10:47.826Z,5.70
2019-01-27T05:13:28.587Z,5.70
2019-01-27T05:16:09.332Z,5.70
2019-01-27T05:18:49.537Z,5.70
2019-01-27T05:21:30.653Z,5.70
2019-01-27T05:24:12.008Z,5.60
2019-01-27T05:26:52.523Z,5.60
2019-01-27T05:29:33.433Z,5.50
2019-01-27T05:32:14.348Z,5.60
2019-01-27T05:34:54.917Z,5.60
2019-01-27T05:37:35.731Z,5.60
2019-01-27T05:40:15.963Z,5.70
2019-01-27T05:42:56.354Z,5.70
2019-01-27T05:45:37.041Z,5.70
2019-01-27T05:48:18.377Z,5.80
2019-01-27T05:50:59.518Z,5.80
2019-01-27T05:53:39.999Z,5.80
2019-01-27T05:56:20.419Z,5.90
2019-01-27T05:59:01.020Z,5.90
2019-01-27T06:01:41.672Z,5.90
2019-01-27T06:04:22.488Z,5.90
2019-01-27T06:07:03.572Z,5.90
2019-01-27T06:09:43.979Z,5.90
2019-01-27T06:12:24.371Z,6.00
2019-01-27T06:15:05.084Z,5.90
2019-01-27T06:17:45.378Z,5.90
2019-01-27T06:20:26.016Z,6.00
2019-01-27T06:23:06.912Z,5.90
2019-01-27T06:25:47.815Z,5.90
2019-01-27T06:28:28.219Z,5.90
2019-01-27T06:31:08.751Z,5.90
2019-01-27T06:33:51.259Z,6.00
2019-01-27T06:36:32.207Z,6.00
2019-01-27T06:39:12.832Z,6.00
2019-01-27T06:41:54.169Z,6.00
2019-01-27T06:44:34.683Z,6.00
2019-01-27T06:47:15.767Z,6.00
2019-01-27T06:49:56.296Z,6.00
2019-01-27T06:52:37.192Z,5.90
2019-01-27T06:55:17.720Z,5.90
2019-01-27T06:57:58.707Z,6.00
2019-01-27T07:00:58.385Z,6.00
2019-01-27T07:03:40.168Z,6.00
2019-01-27T07:06:40.062Z,6.00
2019-01-27T07:09:22.375Z,6.00
2019-01-27T07:12:22.429Z,6.00
2019-01-27T07:15:22.003Z,6.00
2019-01-27T07:21:14.363Z,6.00
2019-01-27T07:30:16.376Z,6.10
2019-01-27T07:33:16.667Z,6.10
2019-01-27T07:35:59.268Z,6.10
2019-01-27T07:38:41.750Z,6.10
2019-01-27T07:41:27.092Z,6.20
2019-01-27T07:47:17.183Z,6.20
2019-01-27T07:50:17.299Z,6.20
2019-01-27T07:53:03.194Z,6.20
2019-01-27T07:55:45.816Z,6.20
2019-01-27T07:58:28.039Z,6.20
2019-01-27T08:01:28.027Z,6.30
2019-01-27T08:04:10.213Z,6.30
2019-01-27T08:06:53.093Z,6.40
2019-01-27T08:13:00.350Z,6.40
2019-01-27T08:15:43.299Z,6.40
2019-01-27T08:18:25.740Z,6.40
2019-01-27T08:21:25.760Z,6.60
2019-01-27T08:24:10.969Z,6.60
2019-01-27T08:27:11.260Z,6.50
2019-01-27T08:30:11.513Z,6.60
2019-01-27T08:32:54.536Z,6.70
2019-01-27T08:35:37.080Z,6.70
2019-01-27T08:38:36.992Z,6.70
2019-01-27T08:41:37.120Z,6.80
2019-01-27T08:44:22.719Z,6.70
2019-01-27T08:47:03.624Z,6.80
2019-01-27T08:49:44.604Z,6.80
2019-01-27T08:52:25.268Z,6.90
2019-01-27T08:55:06.251Z,7.00
2019-01-27T08:57:46.872Z,7.20
2019-01-27T09:00:29.301Z,7.20
2019-01-27T09:03:11.719Z,7.20
2019-01-27T09:05:53.799Z,7.20
2019-01-27T09:08:54.903Z,7.10
2019-01-27T09:11:40.127Z,7.10
2019-01-27T09:14:41.872Z,7.10
2019-01-27T09:17:24.025Z,7.10
2019-01-27T09:20:06.532Z,7.10
2019-01-27T09:22:51.951Z,7.10
2019-01-27T09:25:53.268Z,7.00
2019-01-27T09:28:35.937Z,7.10
2019-01-27T09:31:21.635Z,7.10
2019-01-27T09:34:21.843Z,7.10
2019-01-27T09:40:14.221Z,7.00
2019-01-27T09:42:56.192Z,7.10
2019-01-27T09:46:05.125Z,7.10
2019-01-27T09:51:48.026Z,7.20
2019-01-27T09:54:30.035Z,7.30
2019-01-27T09:57:12.154Z,7.30
2019-01-27T10:00:13.348Z,7.30
2019-01-27T10:02:58.591Z,7.30
2019-01-27T10:05:40.704Z,7.40
2019-01-27T10:08:25.967Z,7.40
2019-01-27T10:11:26.862Z,7.30
2019-01-27T10:14:11.889Z,7.40
2019-01-27T10:16:54.687Z,7.40
2019-01-27T10:19:40.100Z,7.40
2019-01-27T10:25:20.068Z,7.30
2019-01-27T10:31:08.912Z,7.40
2019-01-27T10:37:13.969Z,7.40
2019-01-27T10:39:55.878Z,7.50
2019-01-27T10:42:38.134Z,7.50
2019-01-27T10:45:21.060Z,7.60
2019-01-27T10:48:05.982Z,7.70
2019-01-27T10:51:07.625Z,7.70
2019-01-27T10:53:50.081Z,7.80
2019-01-27T10:56:50.400Z,7.80
2019-01-27T11:03:00.733Z,7.80
2019-01-27T11:05:45.520Z,7.80
2019-01-27T11:08:46.425Z,7.80
2019-01-27T11:11:29.016Z,7.90
2019-01-27T11:14:10.853Z,8.00
2019-01-27T11:16:55.608Z,8.10
2019-01-27T11:25:33.516Z,8.20
2019-01-27T11:31:29.319Z,8.10
2019-01-27T11:34:15.109Z,8.10
2019-01-27T11:36:56.948Z,8.20
2019-01-27T11:42:35.367Z,8.20
2019-01-27T11:48:27.653Z,8.20
2019-01-27T11:51:10.059Z,8.20
2019-01-27T11:53:51.172Z,8.20
2019-01-27T11:56:31.931Z,8.40
2019-01-27T11:59:17.444Z,8.60
2019-01-27T12:01:58.312Z,8.70
2019-01-27T12:04:38.923Z,8.60
2019-01-27T12:07:19.576Z,8.60
2019-01-27T12:10:00.324Z,8.50
2019-01-27T12:12:40.836Z,8.40
2019-01-27T12:15:21.269Z,8.50
2019-01-27T12:18:01.764Z,8.50
2019-01-27T12:20:42.431Z,8.40
2019-01-27T12:23:23.020Z,8.30
2019-01-27T12:26:03.536Z,8.20
2019-01-27T12:28:44.303Z,8.00
2019-01-27T12:31:24.960Z,7.90
2019-01-27T12:34:05.440Z,7.80
2019-01-27T12:36:45.845Z,7.70
2019-01-27T12:39:26.499Z,7.60
2019-01-27T12:42:07.304Z,7.50
2019-01-27T12:44:48.035Z,7.50
2019-01-27T12:47:28.499Z,7.50
2019-01-27T12:50:09.032Z,7.50
2019-01-27T12:52:49.716Z,7.50
2019-01-27T12:55:30.404Z,7.50
2019-01-27T12:58:11.375Z,7.60
2019-01-27T13:00:52.336Z,7.60
2019-01-27T13:03:32.828Z,7.60
2019-01-27T13:06:13.312Z,7.60
2019-01-27T13:08:54.560Z,7.60
2019-01-27T13:11:35.307Z,7.60
2019-01-27T13:14:16.064Z,7.50
2019-01-27T13:16:57.001Z,7.50
2019-01-27T13:19:38.308Z,7.50
2019-01-27T13:22:18.820Z,7.50
2019-01-27T13:24:59.448Z,7.50
2019-01-27T13:27:40.556Z,7.50
2019-01-27T13:30:21.610Z,7.60
2019-01-27T13:33:03.369Z,7.50
2019-01-27T13:35:44.201Z,7.50
2019-01-27T13:38:24.929Z,7.50
2019-01-27T13:41:05.744Z,7.60
2019-01-27T13:43:45.934Z,7.60
2019-01-27T13:46:26.689Z,7.60
2019-01-27T13:49:07.260Z,7.60
2019-01-27T13:51:48.060Z,7.60
2019-01-27T13:54:28.776Z,7.70
2019-01-27T13:57:09.296Z,7.80
2019-01-27T13:59:49.779Z,7.80
2019-01-27T14:02:30.516Z,7.90
2019-01-27T14:05:11.597Z,8.00
2019-01-27T14:07:52.459Z,8.10
2019-01-27T14:10:32.935Z,8.10
2019-01-27T14:13:15.068Z,8.10
2019-01-27T14:15:56.148Z,8.10
2019-01-27T14:18:36.776Z,8.20
2019-01-27T14:21:17.600Z,8.20
2019-01-27T14:23:57.945Z,8.20
2019-01-27T14:26:38.384Z,8.20
2019-01-27T14:29:18.991Z,8.20
2019-01-27T14:31:59.484Z,8.20
2019-01-27T14:34:40.077Z,8.20
2019-01-27T14:37:20.452Z,8.20
2019-01-27T14:40:01.060Z,8.10
2019-01-27T14:42:41.325Z,8.10
2019-01-27T14:45:21.773Z,8.10
2019-01-27T14:48:02.256Z,8.10
2019-01-27T14:50:43.113Z,8.10
2019-01-27T14:53:23.772Z,8.10
2019-01-27T14:56:04.512Z,8.00
2019-01-27T14:58:44.980Z,8.00
2019-01-27T15:01:25.288Z,8.00
2019-01-27T15:04:05.647Z,8.00
2019-01-27T15:06:46.172Z,8.00
2019-01-27T15:09:26.493Z,8.00
2019-01-27T15:12:06.893Z,7.90
2019-01-27T15:14:47.537Z,8.00
2019-01-27T15:17:28.524Z,7.90
2019-01-27T15:20:09.244Z,8.00
2019-01-27T15:22:49.998Z,7.90
2019-01-27T15:25:30.416Z,7.90
2019-01-27T15:28:11.040Z,7.90
2019-01-27T15:30:51.816Z,7.90
2019-01-27T15:33:32.385Z,7.90
2019-01-27T15:36:12.588Z,7.80
2019-01-27T15:38:53.379Z,7.90
2019-01-27T15:41:34.075Z,7.80
2019-01-27T15:44:14.582Z,7.80
2019-01-27T15:46:55.742Z,7.70
2019-01-27T15:49:36.212Z,7.70
2019-01-27T15:52:17.033Z,7.70
2019-01-27T15:54:58.184Z,7.60
2019-01-27T15:57:38.752Z,7.70
2019-01-27T16:00:19.112Z,7.60
2019-01-27T16:02:59.910Z,7.60
2019-01-27T16:05:40.825Z,7.60
2019-01-27T16:08:21.452Z,7.60
2019-01-27T16:11:02.060Z,7.60
2019-01-27T16:13:42.496Z,7.60
2019-01-27T16:16:22.943Z,7.60
2019-01-27T16:19:03.782Z,7.60
2019-01-27T16:21:44.640Z,7.50
2019-01-27T16:24:25.592Z,7.50
2019-01-27T16:27:06.203Z,7.50
2019-01-27T16:29:48.496Z,7.60
2019-01-27T16:32:29.508Z,7.60
2019-01-27T16:35:10.860Z,7.60
2019-01-27T16:37:51.625Z,7.50
2019-01-27T16:40:32.096Z,7.60
2019-01-27T16:43:12.997Z,7.60
2019-01-27T16:45:53.876Z,7.60
2019-01-27T16:48:34.330Z,7.50
2019-01-27T16:51:15.196Z,7.50
2019-01-27T16:53:55.636Z,7.50
2019-01-27T16:56:34.549Z,7.50
2019-01-27T16:59:22.266Z,7.50
2019-01-27T17:02:09.992Z,7.50
2019-01-27T17:04:57.712Z,7.50
2019-01-27T17:07:45.728Z,7.50
2019-01-27T17:10:33.443Z,7.50
2019-01-27T17:13:21.165Z,7.40
2019-01-27T17:16:09.167Z,7.40
2019-01-27T17:18:57.224Z,7.30
2019-01-27T17:21:45.186Z,7.30
2019-01-27T17:24:32.916Z,7.30
2019-01-27T17:27:20.635Z,7.30
2019-01-27T17:30:27.688Z,7.30
2019-01-27T17:33:15.649Z,7.30
2019-01-27T17:36:03.369Z,7.20
2019-01-27T17:38:51.088Z,7.20
2019-01-27T17:41:31.622Z,7.20
2019-01-27T17:44:12.184Z,7.20
2019-01-27T17:46:53.080Z,7.10
2019-01-27T17:49:33.939Z,7.10
2019-01-27T17:52:14.690Z,7.10
2019-01-27T17:54:55.393Z,7.00
2019-01-27T17:57:37.227Z,6.90
2019-01-27T18:00:37.680Z,6.90
2019-01-27T18:03:22.747Z,6.80
2019-01-27T18:09:09.160Z,6.60
2019-01-27T18:11:54.762Z,6.60
2019-01-27T18:14:35.425Z,6.50
2019-01-27T18:17:16.608Z,6.50
2019-01-27T18:19:57.081Z,6.50
2019-01-27T18:22:37.712Z,6.50
2019-01-27T18:25:18.393Z,6.50
2019-01-27T18:27:59.189Z,6.60
2019-01-27T18:30:39.756Z,6.60
2019-01-27T18:33:20.353Z,6.50
2019-01-27T18:36:01.070Z,6.50
2019-01-27T18:38:41.480Z,6.50
2019-01-27T18:41:22.199Z,6.40
2019-01-27T18:44:02.828Z,6.40
2019-01-27T18:46:43.422Z,6.30
2019-01-27T18:49:23.972Z,6.20
2019-01-27T18:52:04.765Z,6.20
2019-01-27T18:54:47.085Z,6.20
2019-01-27T18:57:29.785Z,6.10
2019-01-27T19:00:12.316Z,6.10
2019-01-27T19:02:54.836Z,6.20
2019-01-27T19:05:37.599Z,6.20
2019-01-27T19:11:29.712Z,6.30
2019-01-27T19:14:15.516Z,6.30
2019-01-27T19:20:10.236Z,6.30
2019-01-27T19:22:52.783Z,6.30
2019-01-27T19:25:52.596Z,6.20
2019-01-27T19:28:37.080Z,6.10
2019-01-27T19:31:19.161Z,6.00
2019-01-27T19:37:08.748Z,5.90
2019-01-27T19:42:58.267Z,5.70
2019-01-27T19:45:40.102Z,5.70
2019-01-27T19:48:41.452Z,5.70
2019-01-27T19:54:20.893Z,5.70
2019-01-27T19:57:03.028Z,5.70
2019-01-27T20:05:47.333Z,5.70
2019-01-27T20:08:32.296Z,5.70
2019-01-27T20:11:15.242Z,5.60
2019-01-27T20:13:57.767Z,5.60
2019-01-27T20:16:59.054Z,5.50
2019-01-27T20:25:40.380Z,5.30
2019-01-27T20:28:22.832Z,5.20
2019-01-27T20:31:05.530Z,5.10
2019-01-27T20:34:05.124Z,5.00
2019-01-27T20:36:47.583Z,4.90
2019-01-27T20:45:31.284Z,4.80
2019-01-27T20:48:32.420Z,4.80
2019-01-27T20:51:14.423Z,4.60
2019-01-27T20:54:15.616Z,4.60
2019-01-27T20:56:58.143Z,4.60
2019-01-27T21:03:01.335Z,4.50
2019-01-27T21:05:43.932Z,4.50
2019-01-27T21:08:26.340Z,4.50
2019-01-27T21:11:27.010Z,4.50
2019-01-27T21:14:08.793Z,4.50
2019-01-27T21:16:54.468Z,4.50
2019-01-27T21:19:37.216Z,4.60
2019-01-27T21:22:17.868Z,4.50
2019-01-27T21:24:58.575Z,4.50
2019-01-27T21:27:39.180Z,4.50
2019-01-27T21:30:19.797Z,4.40
2019-01-27T21:33:00.675Z,4.30
2019-01-27T21:35:41.324Z,4.20
2019-01-27T21:38:22.396Z,4.10
2019-01-27T21:41:02.705Z,4.00
2019-01-27T21:43:43.620Z,3.90
2019-01-27T21:46:24.844Z,3.90
2019-01-27T21:49:05.227Z,3.90
2019-01-27T21:51:46.035Z,3.80
2019-01-27T21:54:26.900Z,3.70
2019-01-27T21:57:07.390Z,3.70
2019-01-27T21:59:49.612Z,3.60
2019-01-27T22:02:29.795Z,3.50
2019-01-27T22:05:10.436Z,3.40
2019-01-27T22:07:51.200Z,3.40
2019-01-27T22:10:31.640Z,3.30
2019-01-27T22:13:12.335Z,3.30
2019-01-27T22:15:52.848Z,3.30
2019-01-27T22:18:33.650Z,3.30
2019-01-27T22:21:14.668Z,3.30
2019-01-27T22:23:55.452Z,3.30
2019-01-27T22:26:36.132Z,3.40
2019-01-27T22:29:16.788Z,3.40
2019-01-27T22:31:57.264Z,3.40
2019-01-27T22:34:37.776Z,3.40
2019-01-27T22:37:18.177Z,3.40
2019-01-27T22:39:59.047Z,3.40
2019-01-27T22:42:39.673Z,3.40
2019-01-27T22:45:20.271Z,3.40
2019-01-27T22:48:01.387Z,3.40
2019-01-27T22:50:41.860Z,3.30
2019-01-27T22:53:22.496Z,3.30
2019-01-27T22:56:03.049Z,3.30
2019-01-27T22:58:43.680Z,3.40
2019-01-27T23:01:24.532Z,3.40
2019-01-27T23:04:04.667Z,3.40
2019-01-27T23:06:45.184Z,3.40
2019-01-27T23:09:26.260Z,3.50
2019-01-27T23:12:06.740Z,3.50
2019-01-27T23:14:47.451Z,3.50
2019-01-27T23:17:28.196Z,3.60
2019-01-27T23:20:08.873Z,3.50
2019-01-27T23:22:50.111Z,3.60
2019-01-27T23:25:30.904Z,3.50
2019-01-27T23:28:11.509Z,3.50
2019-01-27T23:30:51.984Z,3.40
2019-01-27T23:33:32.834Z,3.30
2019-01-27T23:36:13.314Z,3.30
2019-01-27T23:38:53.775Z,3.30
2019-01-27T23:41:34.800Z,3.20
2019-01-27T23:44:15.204Z,3.20
2019-01-27T23:46:55.725Z,3.20
2019-01-27T23:49:36.150Z,3.10
2019-01-27T23:52:16.723Z,3.00
2019-01-27T23:54:56.960Z,3.00
2019-01-27T23:57:37.665Z,3.00
